createdAt,value
2018-08-09T00:00:23.796Z,100094.48
2018-08-09T00:02:53.404Z,100089.22
2018-08-09T00:05:23.192Z,100092.30
2018-08-09T00:07:52.724Z,100095.56
2018-08-09T00:10:22.224Z,100095.18
2018-08-09T00:12:51.778Z,100096.33
2018-08-09T00:15:21.335Z,100099.45
2018-08-09T00:17:50.932Z,100106.33
2018-08-09T00:20:20.484Z,100103.02
2018-08-09T00:22:50.081Z,100104.98
2018-08-09T00:25:19.616Z,100102.48
2018-08-09T00:27:49.235Z,100104.64
2018-08-09T00:30:18.795Z,100106.14
2018-08-09T00:32:48.415Z,100105.33
2018-08-09T00:35:17.962Z,100108.90
2018-08-09T00:37:47.523Z,100106.13
2018-08-09T00:40:17.082Z,100111.28
2018-08-09T00:42:46.620Z,100109.52
2018-08-09T00:45:16.241Z,100109.79
2018-08-09T00:47:45.868Z,100111.91
2018-08-09T00:50:15.467Z,100111.17
2018-08-09T00:52:45.083Z,100107.64
2018-08-09T00:55:14.651Z,100103.30
2018-08-09T00:57:44.211Z,100107.48
2018-08-09T01:00:13.817Z,100106.22
2018-08-09T01:02:43.334Z,100101.36
2018-08-09T01:05:12.959Z,100096.08
2018-08-09T01:07:42.747Z,100089.05
2018-08-09T01:10:12.335Z,100082.80
2018-08-09T01:12:41.927Z,100087.77
2018-08-09T01:15:11.630Z,100093.94
2018-08-09T01:17:41.242Z,100092.33
2018-08-09T01:20:10.955Z,100092.38
2018-08-09T01:22:40.555Z,100096.02
2018-08-09T01:25:10.186Z,100100.06
2018-08-09T01:27:39.690Z,100104.11
2018-08-09T01:30:09.295Z,100098.72
2018-08-09T01:32:38.887Z,100100.03
2018-08-09T01:35:08.427Z,100101.61
2018-08-09T01:37:37.974Z,100100.84
2018-08-09T01:40:07.703Z,100100.26
2018-08-09T01:42:48.000Z,100108.14
2018-08-09T01:45:17.558Z,100109.05
2018-08-09T01:47:47.111Z,100111.75
2018-08-09T01:50:16.754Z,100111.91
2018-08-09T01:52:46.698Z,100118.42
2018-08-09T01:55:16.284Z,100122.68
2018-08-09T01:57:45.891Z,100122.19
2018-08-09T02:00:15.386Z,100119.41
2018-08-09T02:02:44.970Z,100115.45
2018-08-09T02:05:14.483Z,100115.71
2018-08-09T02:07:44.088Z,100115.37
2018-08-09T02:10:13.587Z,100108.42
2018-08-09T02:12:43.131Z,100107.98
2018-08-09T02:15:12.814Z,100104.91
2018-08-09T02:17:42.329Z,100107.89
2018-08-09T02:20:11.895Z,100112.24
2018-08-09T02:22:41.416Z,100118.73
2018-08-09T02:25:11.036Z,100110.41
2018-08-09T02:27:40.599Z,100113.62
2018-08-09T02:30:10.211Z,100117.02
2018-08-09T02:32:39.722Z,100120.05
2018-08-09T02:35:09.310Z,100125.64
2018-08-09T02:37:38.827Z,100127.09
2018-08-09T02:40:08.415Z,100121.37
2018-08-09T02:42:37.972Z,100129.05
2018-08-09T02:45:07.539Z,100132.44
2018-08-09T02:47:37.148Z,100136.59
2018-08-09T02:50:06.687Z,100133.44
2018-08-09T02:52:36.248Z,100131.41
2018-08-09T02:55:05.905Z,100142.30
2018-08-09T02:57:35.493Z,100144.88
2018-08-09T03:00:05.925Z,100142.50
2018-08-09T03:02:35.512Z,100147.78
2018-08-09T03:05:05.374Z,100148.80
2018-08-09T03:07:34.943Z,100148.40
2018-08-09T03:10:04.687Z,100148.16
2018-08-09T03:12:34.203Z,100160.68
2018-08-09T03:15:03.913Z,100157.89
2018-08-09T03:17:33.458Z,100159.97
2018-08-09T03:20:03.041Z,100156.59
2018-08-09T03:22:32.683Z,100151.88
2018-08-09T03:25:02.387Z,100154.20
2018-08-09T03:27:31.935Z,100156.66
2018-08-09T03:30:01.459Z,100159.03
2018-08-09T03:32:31.063Z,100165.13
2018-08-09T03:35:00.575Z,100166.19
2018-08-09T03:37:30.187Z,100164.94
2018-08-09T03:39:59.752Z,100171.55
2018-08-09T03:42:29.319Z,100168.54
2018-08-09T03:44:58.891Z,100162.03
2018-08-09T03:47:28.498Z,100175.97
2018-08-09T03:49:57.999Z,100183.76
2018-08-09T03:52:27.648Z,100182.68
2018-08-09T03:54:57.217Z,100176.57
2018-08-09T03:57:26.798Z,100175.70
2018-08-09T03:59:56.399Z,100174.18
2018-08-09T04:02:26.089Z,100175.70
2018-08-09T04:04:55.598Z,100172.55
2018-08-09T04:07:25.138Z,100179.98
2018-08-09T04:09:54.639Z,100183.59
2018-08-09T04:12:24.179Z,100182.70
2018-08-09T04:14:53.702Z,100186.88
2018-08-09T04:17:23.327Z,100193.35
2018-08-09T04:19:53.242Z,100197.13
2018-08-09T04:22:23.518Z,100187.80
2018-08-09T04:24:53.094Z,100187.92
2018-08-09T04:27:22.608Z,100185.77
2018-08-09T04:29:52.237Z,100194.55
2018-08-09T04:32:21.798Z,100191.06
2018-08-09T04:34:51.368Z,100194.75
2018-08-09T04:37:20.886Z,100198.50
2018-08-09T04:39:50.454Z,100201.52
2018-08-09T04:42:20.076Z,100197.73
2018-08-09T04:44:49.635Z,100196.95
2018-08-09T04:47:19.187Z,100202.98
2018-08-09T04:49:48.691Z,100199.05
2018-08-09T04:52:18.330Z,100203.63
2018-08-09T04:54:47.975Z,100205.09
2018-08-09T04:57:17.538Z,100207.28
2018-08-09T04:59:47.095Z,100207.63
2018-08-09T05:02:16.667Z,100219.23
2018-08-09T05:04:46.255Z,100210.55
2018-08-09T05:07:15.903Z,100212.36
2018-08-09T05:09:45.624Z,100209.75
2018-08-09T05:12:15.320Z,100215.55
2018-08-09T05:14:44.867Z,100215.95
2018-08-09T05:17:14.505Z,100213.52
2018-08-09T05:19:44.079Z,100218.17
2018-08-09T05:22:13.688Z,100221.24
2018-08-09T05:24:43.267Z,100226.02
2018-08-09T05:27:12.887Z,100229.84
2018-08-09T05:29:42.474Z,100233.34
2018-08-09T05:32:12.094Z,100232.73
2018-08-09T05:34:41.757Z,100235.03
2018-08-09T05:37:11.348Z,100232.02
2018-08-09T05:39:40.997Z,100238.73
2018-08-09T05:42:10.628Z,100239.21
2018-08-09T05:44:40.327Z,100237.34
2018-08-09T05:47:09.919Z,100241.81
2018-08-09T05:49:39.607Z,100248.86
2018-08-09T05:52:09.287Z,100250.67
2018-08-09T05:54:38.934Z,100259.31
2018-08-09T05:57:08.555Z,100271.98
2018-08-09T05:59:38.154Z,100263.05
2018-08-09T06:02:07.888Z,100263.63
2018-08-09T06:04:37.490Z,100261.76
2018-08-09T06:07:07.164Z,100261.52
2018-08-09T06:09:36.924Z,100260.39
2018-08-09T06:12:06.643Z,100264.86
2018-08-09T06:14:36.254Z,100260.95
2018-08-09T06:17:05.877Z,100263.80
2018-08-09T06:19:35.591Z,100256.52
2018-08-09T06:22:05.815Z,100259.16
2018-08-09T06:24:35.432Z,100260.28
2018-08-09T06:27:05.239Z,100261.45
2018-08-09T06:29:34.882Z,100257.83
2018-08-09T06:32:04.574Z,100255.06
2018-08-09T06:34:34.237Z,100260.59
2018-08-09T06:37:04.892Z,100257.04
2018-08-09T06:39:34.546Z,100255.78
2018-08-09T06:42:04.191Z,100255.69
2018-08-09T06:44:33.836Z,100253.59
2018-08-09T06:47:03.647Z,100261.39
2018-08-09T06:49:33.308Z,100254.45
2018-08-09T06:52:02.979Z,100259.19
2018-08-09T06:54:32.608Z,100261.75
2018-08-09T06:57:02.436Z,100261.75
2018-08-09T06:59:32.101Z,100271.97
2018-08-09T07:02:01.745Z,100269.88
2018-08-09T07:04:31.363Z,100272.67
2018-08-09T07:07:00.991Z,100271.73
2018-08-09T07:09:30.547Z,100275.56
2018-08-09T07:12:00.267Z,100269.86
2018-08-09T07:14:29.892Z,100273.10
2018-08-09T07:16:59.480Z,100272.59
2018-08-09T07:19:29.068Z,100269.38
2018-08-09T07:21:58.619Z,100281.80
2018-08-09T07:24:28.375Z,100199.28
2018-08-09T07:26:57.953Z,100282.25
2018-08-09T07:29:27.622Z,100280.22
2018-08-09T07:31:57.964Z,100288.34
2018-08-09T07:34:27.688Z,100279.24
2018-08-09T07:36:57.335Z,100278.07
2018-08-09T07:39:27.067Z,100276.28
2018-08-09T07:41:56.758Z,100277.43
2018-08-09T07:44:26.480Z,100274.59
2018-08-09T07:46:56.135Z,100282.30
2018-08-09T07:49:25.743Z,100272.81
2018-08-09T07:51:55.415Z,100271.74
2018-08-09T07:54:25.035Z,100268.21
2018-08-09T07:56:54.748Z,100267.97
2018-08-09T07:59:24.499Z,100271.40
2018-08-09T08:01:54.127Z,100278.07
2018-08-09T08:04:23.771Z,100264.48
2018-08-09T08:06:53.463Z,100265.52
2018-08-09T08:09:23.162Z,100266.12
2018-08-09T08:11:52.822Z,100260.63
2018-08-09T08:14:22.526Z,100261.55
2018-08-09T08:16:52.175Z,100206.28
2018-08-09T08:19:21.848Z,100255.00
2018-08-09T08:21:51.517Z,100262.38
2018-08-09T08:24:21.239Z,100261.72
2018-08-09T08:26:50.833Z,100251.06
2018-08-09T08:29:20.539Z,100252.31
2018-08-09T08:31:50.523Z,100250.80
2018-08-09T08:34:20.084Z,100251.81
2018-08-09T08:36:49.614Z,100245.28
2018-08-09T08:39:19.175Z,100247.08
2018-08-09T08:41:48.975Z,100243.09
2018-08-09T08:44:18.572Z,100238.83
2018-08-09T08:46:48.222Z,100241.86
2018-08-09T08:49:17.803Z,100237.22
2018-08-09T08:51:47.474Z,100234.03
2018-08-09T08:54:17.189Z,100241.83
2018-08-09T08:56:46.833Z,100233.92
2018-08-09T08:59:16.755Z,100226.38
2018-08-09T09:01:46.459Z,100233.14
2018-08-09T09:04:16.089Z,100229.94
2018-08-09T09:06:45.689Z,100229.59
2018-08-09T09:09:15.521Z,100232.53
2018-08-09T09:11:45.229Z,100230.20
2018-08-09T09:14:15.100Z,100236.78
2018-08-09T09:16:44.788Z,100235.16
2018-08-09T09:19:14.602Z,100229.41
2018-08-09T09:21:44.255Z,100224.00
2018-08-09T09:24:13.990Z,100229.55
2018-08-09T09:26:43.557Z,100219.20
2018-08-09T09:29:13.204Z,100228.61
2018-08-09T09:31:42.794Z,100223.81
2018-08-09T09:34:12.468Z,100225.41
2018-08-09T09:36:42.204Z,100224.61
2018-08-09T09:39:11.935Z,100225.55
2018-08-09T09:41:41.562Z,100147.78
2018-08-09T09:44:11.388Z,100218.33
2018-08-09T09:46:40.956Z,100221.82
2018-08-09T09:49:10.582Z,100218.94
2018-08-09T09:51:40.267Z,100220.75
2018-08-09T09:54:09.803Z,100215.61
2018-08-09T09:56:39.425Z,100225.91
2018-08-09T09:59:09.055Z,100226.24
2018-08-09T10:01:38.659Z,100221.73
2018-08-09T10:04:08.169Z,100222.30
2018-08-09T10:06:37.760Z,100209.86
2018-08-09T10:09:11.131Z,100209.38
2018-08-09T10:11:41.122Z,100214.64
2018-08-09T10:14:10.794Z,100208.61
2018-08-09T10:16:40.442Z,100213.66
2018-08-09T10:19:10.073Z,100201.84
2018-08-09T10:21:39.633Z,100202.34
2018-08-09T10:24:09.290Z,100198.14
2018-08-09T10:26:38.851Z,100196.52
2018-08-09T10:29:08.531Z,100199.95
2018-08-09T10:31:38.163Z,100197.39
2018-08-09T10:34:07.696Z,100121.42
2018-08-09T10:36:37.401Z,100189.94
2018-08-09T10:39:09.657Z,100189.71
2018-08-09T10:41:39.460Z,100189.81
2018-08-09T10:44:09.212Z,100200.81
2018-08-09T10:46:38.907Z,100196.92
2018-08-09T10:49:08.900Z,100188.61
2018-08-09T10:51:38.587Z,100183.67
2018-08-09T10:54:08.299Z,100185.37
2018-08-09T10:56:38.186Z,100186.27
2018-08-09T10:59:07.860Z,100188.28
2018-08-09T11:01:37.637Z,100185.17
2018-08-09T11:04:07.254Z,100194.94
2018-08-09T11:06:37.015Z,100194.19
2018-08-09T11:09:09.359Z,100193.53
2018-08-09T11:11:39.043Z,100191.09
2018-08-09T11:14:08.618Z,100187.41
2018-08-09T11:16:38.199Z,100187.19
2018-08-09T11:19:07.858Z,100192.27
2018-08-09T11:21:37.540Z,100198.32
2018-08-09T11:24:07.253Z,100189.39
2018-08-09T11:26:36.975Z,100189.34
2018-08-09T11:29:06.788Z,100191.29
2018-08-09T11:31:36.424Z,100191.05
2018-08-09T11:34:06.056Z,100189.45
2018-08-09T11:36:36.024Z,100186.53
2018-08-09T11:39:09.172Z,100187.39
2018-08-09T11:41:38.832Z,100188.91
2018-08-09T11:44:09.172Z,100176.52
2018-08-09T11:46:38.849Z,100173.53
2018-08-09T11:49:08.618Z,100172.74
2018-08-09T11:51:38.319Z,100172.53
2018-08-09T11:54:08.139Z,100169.22
2018-08-09T11:56:37.680Z,100166.27
2018-08-09T11:59:07.435Z,100156.50
2018-08-09T12:01:37.602Z,100162.55
2018-08-09T12:04:07.460Z,100152.27
2018-08-09T12:06:37.122Z,100147.12
2018-08-09T12:09:09.003Z,100069.05
2018-08-09T12:11:39.024Z,100141.48
2018-08-09T12:14:09.135Z,100144.80
2018-08-09T12:16:38.666Z,100144.20
2018-08-09T12:19:08.364Z,100139.91
2018-08-09T12:21:37.967Z,100128.13
2018-08-09T12:24:07.659Z,100126.61
2018-08-09T12:26:37.348Z,100120.82
2018-08-09T12:29:07.055Z,100113.00
2018-08-09T12:31:36.844Z,100118.67
2018-08-09T12:34:06.655Z,100115.62
2018-08-09T12:36:36.323Z,100116.72
2018-08-09T12:39:09.215Z,100102.38
2018-08-09T12:41:38.896Z,100101.57
2018-08-09T12:44:08.703Z,100100.23
2018-08-09T12:46:38.281Z,100097.50
2018-08-09T12:49:08.170Z,100094.69
2018-08-09T12:51:37.925Z,100087.89
2018-08-09T12:54:07.780Z,100098.58
2018-08-09T12:56:37.478Z,100096.33
2018-08-09T12:59:07.195Z,100092.19
2018-08-09T13:01:36.872Z,100095.19
2018-08-09T13:04:06.709Z,100098.60
2018-08-09T13:06:36.432Z,100098.30
2018-08-09T13:09:08.594Z,100092.52
2018-08-09T13:11:38.352Z,100089.56
2018-08-09T13:14:08.163Z,100090.36
2018-08-09T13:16:37.924Z,100098.70
2018-08-09T13:19:08.165Z,100092.18
2018-08-09T13:21:38.220Z,100097.05
2018-08-09T13:24:07.851Z,100098.88
2018-08-09T13:26:37.482Z,100101.04
2018-08-09T13:29:07.274Z,100099.62
2018-08-09T13:31:37.048Z,100101.09
2018-08-09T13:34:06.683Z,100093.02
2018-08-09T13:36:36.357Z,100092.56
2018-08-09T13:39:09.824Z,100092.84
2018-08-09T13:41:39.491Z,100095.42
2018-08-09T13:44:09.294Z,100090.58
2018-08-09T13:46:39.060Z,100092.66
2018-08-09T13:49:08.807Z,100091.98
2018-08-09T13:51:38.504Z,100086.56
2018-08-09T13:54:08.380Z,100085.34
2018-08-09T13:56:38.023Z,100082.17
2018-08-09T13:59:07.753Z,100085.41
2018-08-09T14:01:37.328Z,100084.78
2018-08-09T14:04:07.153Z,100078.97
2018-08-09T14:06:36.912Z,100074.67
2018-08-09T14:09:12.454Z,100080.29
2018-08-09T14:11:42.970Z,100026.55
2018-08-09T14:14:12.947Z,100074.59
2018-08-09T14:16:42.635Z,100075.25
2018-08-09T14:19:12.553Z,99994.23
2018-08-09T14:21:42.602Z,100065.84
2018-08-09T14:24:12.507Z,100069.53
2018-08-09T14:26:43.000Z,100066.83
2018-08-09T14:29:12.836Z,100060.66
2018-08-09T14:31:42.861Z,100066.59
2018-08-09T14:34:12.724Z,100067.30
2018-08-09T14:36:42.665Z,100068.55
2018-08-09T14:39:12.447Z,100059.56
2018-08-09T14:41:42.321Z,100055.97
2018-08-09T14:44:12.176Z,100054.56
2018-08-09T14:46:41.995Z,100057.85
2018-08-09T14:49:11.784Z,100057.05
2018-08-09T14:51:41.564Z,100053.39
2018-08-09T14:54:11.445Z,100054.19
2018-08-09T14:56:41.263Z,100053.94
2018-08-09T14:59:11.169Z,100050.23
2018-08-09T15:01:41.077Z,100050.83
2018-08-09T15:04:17.195Z,100052.78
2018-08-09T15:06:47.667Z,100048.14
2018-08-09T15:09:17.537Z,100049.32
2018-08-09T15:11:47.298Z,100044.25
2018-08-09T15:14:17.091Z,100046.00
2018-08-09T15:16:46.953Z,100044.37
2018-08-09T15:19:16.755Z,100049.01
2018-08-09T15:21:46.583Z,100041.73
2018-08-09T15:24:16.379Z,100037.81
2018-08-09T15:26:45.976Z,100032.63
2018-08-09T15:29:15.567Z,100035.59
2018-08-09T15:31:45.220Z,100038.03
2018-08-09T15:34:14.829Z,100036.99
2018-08-09T15:36:44.720Z,100032.59
2018-08-09T15:39:15.010Z,100030.77
2018-08-09T15:41:44.869Z,100028.56
2018-08-09T15:44:14.754Z,100033.61
2018-08-09T15:46:44.422Z,100029.03
2018-08-09T15:49:14.031Z,100025.06
2018-08-09T15:51:43.644Z,100025.47
2018-08-09T15:54:13.238Z,100022.23
2018-08-09T15:56:42.989Z,100020.16
2018-08-09T15:59:12.667Z,100021.62
2018-08-09T16:01:42.335Z,100025.92
2018-08-09T16:04:12.110Z,100025.92
2018-08-09T16:06:41.678Z,100030.95
2018-08-09T16:09:14.951Z,100033.42
2018-08-09T16:11:44.762Z,100034.70
2018-08-09T16:14:14.409Z,100036.67
2018-08-09T16:16:44.040Z,100033.31
2018-08-09T16:19:13.743Z,100040.05
2018-08-09T16:21:43.287Z,100038.33
2018-08-09T16:24:12.995Z,100036.89
2018-08-09T16:26:42.608Z,100033.20
2018-08-09T16:29:12.200Z,100036.53
2018-08-09T16:31:41.772Z,100035.05
2018-08-09T16:34:11.500Z,100032.61
2018-08-09T16:36:41.159Z,100028.77
2018-08-09T16:39:12.929Z,100030.09
2018-08-09T16:41:42.655Z,100028.56
2018-08-09T16:44:12.476Z,100031.52
2018-08-09T16:46:42.071Z,100027.09
2018-08-09T16:49:11.828Z,100031.88
2018-08-09T16:51:41.347Z,100033.66
2018-08-09T16:54:11.088Z,100034.82
2018-08-09T16:56:40.604Z,100038.94
2018-08-09T16:59:10.245Z,100037.48
2018-08-09T17:01:39.929Z,100036.59
2018-08-09T17:04:09.548Z,100040.62
2018-08-09T17:06:39.263Z,100036.02
2018-08-09T17:09:12.719Z,100045.56
2018-08-09T17:11:43.827Z,100048.52
2018-08-09T17:14:14.852Z,100047.52
2018-08-09T17:16:44.946Z,100052.42
2018-08-09T17:19:14.479Z,99964.70
2018-08-09T17:21:44.236Z,100049.09
2018-08-09T17:24:13.755Z,100060.86
2018-08-09T17:26:43.407Z,100056.61
2018-08-09T17:29:12.985Z,100064.52
2018-08-09T17:31:42.611Z,100064.22
2018-08-09T17:34:12.195Z,100063.72
2018-08-09T17:36:41.742Z,100071.86
2018-08-09T17:39:12.239Z,100071.66
2018-08-09T17:41:41.927Z,100067.87
2018-08-09T17:44:12.395Z,100074.87
2018-08-09T17:46:42.071Z,100079.14
2018-08-09T17:49:11.700Z,100088.69
2018-08-09T17:51:41.307Z,100088.13
2018-08-09T17:54:10.996Z,100085.92
2018-08-09T17:56:40.663Z,100088.27
2018-08-09T17:59:10.267Z,100095.16
2018-08-09T18:01:39.919Z,100096.22
2018-08-09T18:04:09.531Z,100101.34
2018-08-09T18:06:39.105Z,100107.61
2018-08-09T18:09:10.476Z,100110.78
2018-08-09T18:11:40.527Z,100115.98
2018-08-09T18:14:10.203Z,100118.86
2018-08-09T18:16:40.115Z,100123.40
2018-08-09T18:19:09.823Z,100126.39
2018-08-09T18:21:39.476Z,100138.00
2018-08-09T18:24:09.080Z,100134.18
2018-08-09T18:26:38.685Z,100144.39
2018-08-09T18:29:08.267Z,100143.09
2018-08-09T18:31:37.981Z,100144.67
2018-08-09T18:34:07.715Z,100144.84
2018-08-09T18:36:37.402Z,100145.72
2018-08-09T18:39:09.655Z,100140.67
2018-08-09T18:41:39.264Z,100147.02
2018-08-09T18:44:08.868Z,100151.89
2018-08-09T18:46:38.441Z,100157.05
2018-08-09T18:49:08.256Z,100153.40
2018-08-09T18:51:37.796Z,100156.59
2018-08-09T18:54:07.519Z,100156.11
2018-08-09T18:56:37.211Z,100155.10
2018-08-09T18:59:06.904Z,100159.06
2018-08-09T19:01:36.523Z,100154.84
2018-08-09T19:04:06.545Z,100160.08
2018-08-09T19:06:36.182Z,100161.38
2018-08-09T19:09:08.279Z,100155.97
2018-08-09T19:11:37.815Z,100161.53
2018-08-09T19:14:07.404Z,100168.39
2018-08-09T19:16:36.956Z,100170.11
2018-08-09T19:19:06.627Z,100162.87
2018-08-09T19:21:36.218Z,100170.27
2018-08-09T19:24:05.844Z,100171.02
2018-08-09T19:26:35.596Z,100174.48
2018-08-09T19:29:05.162Z,100173.48
2018-08-09T19:31:34.739Z,100180.38
2018-08-09T19:34:04.396Z,100178.02
2018-08-09T19:36:34.032Z,100184.09
2018-08-09T19:39:04.015Z,100185.81
2018-08-09T19:41:33.544Z,100179.34
2018-08-09T19:44:03.188Z,100182.29
2018-08-09T19:46:32.743Z,100185.97
2018-08-09T19:49:02.531Z,100185.36
2018-08-09T19:51:32.192Z,100181.63
2018-08-09T19:54:01.856Z,100185.80
2018-08-09T19:56:31.440Z,100193.48
2018-08-09T19:59:01.027Z,100183.02
2018-08-09T20:01:30.539Z,100186.15
2018-08-09T20:04:00.174Z,100188.37
2018-08-09T20:06:29.828Z,100190.66
2018-08-09T20:08:59.395Z,100196.92
2018-08-09T20:11:29.035Z,100205.74
2018-08-09T20:13:58.563Z,100214.96
2018-08-09T20:16:28.279Z,100208.60
2018-08-09T20:18:57.893Z,100210.63
2018-08-09T20:21:27.456Z,100210.89
2018-08-09T20:23:57.143Z,100217.49
2018-08-09T20:26:26.720Z,100217.17
2018-08-09T20:28:56.389Z,100226.66
2018-08-09T20:31:26.019Z,100228.95
2018-08-09T20:33:55.722Z,100226.66
2018-08-09T20:36:25.325Z,100231.88
2018-08-09T20:38:54.933Z,100239.16
2018-08-09T20:41:24.632Z,100240.42
2018-08-09T20:43:54.155Z,100241.58
2018-08-09T20:46:23.727Z,100246.31
2018-08-09T20:48:53.371Z,100243.85
2018-08-09T20:51:22.991Z,100249.72
2018-08-09T20:53:52.588Z,100241.92
2018-08-09T20:56:22.224Z,100245.31
2018-08-09T20:58:51.812Z,100246.62
2018-08-09T21:01:21.375Z,100249.47
2018-08-09T21:03:51.003Z,100254.11
2018-08-09T21:06:20.604Z,100255.39
2018-08-09T21:08:50.231Z,100258.37
2018-08-09T21:11:19.803Z,100260.41
2018-08-09T21:13:49.463Z,100257.53
2018-08-09T21:16:18.995Z,100259.11
2018-08-09T21:18:48.615Z,100265.44
2018-08-09T21:21:18.239Z,100265.32
2018-08-09T21:23:47.995Z,100163.12
2018-08-09T21:26:17.571Z,100265.08
2018-08-09T21:28:47.144Z,100270.16
2018-08-09T21:31:16.772Z,100274.20
2018-08-09T21:33:46.455Z,100272.22
2018-08-09T21:36:16.000Z,100279.19
2018-08-09T21:38:45.615Z,100275.42
2018-08-09T21:41:15.241Z,100282.34
2018-08-09T21:43:44.804Z,100278.93
2018-08-09T21:46:14.337Z,100282.04
2018-08-09T21:48:44.123Z,100285.42
2018-08-09T21:51:13.622Z,100288.19
2018-08-09T21:53:43.230Z,100291.91
2018-08-09T21:56:12.819Z,100293.55
2018-08-09T21:58:42.440Z,100290.83
2018-08-09T22:01:13.087Z,100291.33
2018-08-09T22:03:42.655Z,100291.30
2018-08-09T22:06:17.497Z,100290.45
2018-08-09T22:10:55.015Z,100290.63
2018-08-09T22:13:29.867Z,100295.05
2018-08-09T22:16:04.346Z,100304.91
2018-08-09T22:18:38.879Z,100301.90
2018-08-09T22:21:13.451Z,100299.37
2018-08-09T22:23:43.086Z,100304.27
2018-08-09T22:26:13.080Z,100300.66
2018-08-09T22:28:43.310Z,100304.30
2018-08-09T22:31:13.342Z,100306.83
2018-08-09T22:33:42.927Z,100306.25
2018-08-09T22:36:12.622Z,100311.18
2018-08-09T22:38:42.259Z,100307.17
2018-08-09T22:41:11.854Z,100311.66
2018-08-09T22:43:41.406Z,100302.20
2018-08-09T22:46:11.008Z,100301.09
2018-08-09T22:48:40.608Z,100301.77
2018-08-09T22:51:10.219Z,100297.04
2018-08-09T22:53:39.855Z,100296.56
2018-08-09T22:56:09.488Z,100301.86
2018-08-09T22:58:39.105Z,100293.78
2018-08-09T23:01:08.706Z,100292.94
2018-08-09T23:03:38.430Z,100285.64
2018-08-09T23:06:08.633Z,100296.33
2018-08-09T23:08:38.220Z,100295.76
2018-08-09T23:11:08.063Z,100209.91
2018-08-09T23:13:37.611Z,100298.30
2018-08-09T23:16:07.203Z,100305.11
2018-08-09T23:18:36.823Z,100302.02
2018-08-09T23:21:06.536Z,100296.55
2018-08-09T23:23:36.223Z,100301.14
2018-08-09T23:26:05.880Z,100300.70
2018-08-09T23:28:35.527Z,100305.27
2018-08-09T23:31:05.184Z,100301.83
2018-08-09T23:33:34.856Z,100308.55
2018-08-09T23:36:04.415Z,100307.80
2018-08-09T23:38:34.027Z,100312.70
2018-08-09T23:41:03.561Z,100311.78
2018-08-09T23:43:33.172Z,100316.23
2018-08-09T23:46:02.732Z,100318.06
2018-08-09T23:48:32.469Z,100316.11
2018-08-09T23:51:02.097Z,100318.22
2018-08-09T23:53:31.736Z,100320.48
2018-08-09T23:56:01.398Z,100312.83
2018-08-09T23:58:30.943Z,100323.81
